<?xml version="1.0" encoding="utf-8"?>
<gpx xmlns:xsi="http://www.w3.org/2001/XMLSchema-instance" xmlns:xsd="http://www.w3.org/2001/XMLSchema" version="1.1" creator="Shapelink.com" xmlns="http://www.topografix.com/GPX/1/1" xmlns:gpxtpx="http://www.garmin.com/xmlschemas/TrackPointExtension/v1">
  <metadata>
    <name>Löpning 8.12 km, 2019-04-11</name>
    <desc></desc>
    <author><name>Marian Moron</name></author> 
    <time>2019-04-11T22:43:55Z</time>
  </metadata>
  <trk>
    <name>Löpning 8.12 km, 2019-04-11</name>
    <trkseg>
      <trkpt lat="51.230943683343" lon="4.459619986021">
        <ele>0</ele>
        <time>2019-04-11T22:44:53Z</time>
      </trkpt>
      <trkpt lat="51.231163959675" lon="4.459553182278">
        <ele>0</ele>
        <time>2019-04-11T22:45:01Z</time>
      </trkpt>
      <trkpt lat="51.231356156642" lon="4.45949937048">
        <ele>0</ele>
        <time>2019-04-11T22:45:09Z</time>
      </trkpt>
      <trkpt lat="51.231398066142" lon="4.459530551148">
        <ele>0</ele>
        <time>2019-04-11T22:45:10Z</time>
      </trkpt>
      <trkpt lat="51.231574588956" lon="4.459578244159">
        <ele>0</ele>
        <time>2019-04-11T22:45:19Z</time>
      </trkpt>
      <trkpt lat="51.231746669363" lon="4.459482439042">
        <ele>0</ele>
        <time>2019-04-11T22:45:27Z</time>
      </trkpt>
      <trkpt lat="51.231889916034" lon="4.45927305918">
        <ele>0</ele>
        <time>2019-04-11T22:45:35Z</time>
      </trkpt>
      <trkpt lat="51.23207716768" lon="4.459238274295">
        <ele>0</ele>
        <time>2019-04-11T22:45:43Z</time>
      </trkpt>
      <trkpt lat="51.232254528684" lon="4.459265264013">
        <ele>0</ele>
        <time>2019-04-11T22:45:51Z</time>
      </trkpt>
      <trkpt lat="51.232452928257" lon="4.459287727505">
        <ele>0</ele>
        <time>2019-04-11T22:46:01Z</time>
      </trkpt>
      <trkpt lat="51.232641437188" lon="4.459227294006">
        <ele>0</ele>
        <time>2019-04-11T22:46:09Z</time>
      </trkpt>
      <trkpt lat="51.232742941997" lon="4.459230227671">
        <ele>0</ele>
        <time>2019-04-11T22:46:13Z</time>
      </trkpt>
      <trkpt lat="51.232775882864" lon="4.459284290926">
        <ele>0</ele>
        <time>2019-04-11T22:46:15Z</time>
      </trkpt>
      <trkpt lat="51.232850649412" lon="4.459592158113">
        <ele>0</ele>
        <time>2019-04-11T22:46:23Z</time>
      </trkpt>
      <trkpt lat="51.232928433444" lon="4.45986230675">
        <ele>0</ele>
        <time>2019-04-11T22:46:30Z</time>
      </trkpt>
      <trkpt lat="51.232993057893" lon="4.460158271639">
        <ele>0</ele>
        <time>2019-04-11T22:46:38Z</time>
      </trkpt>
      <trkpt lat="51.233051815012" lon="4.460445016438">
        <ele>0</ele>
        <time>2019-04-11T22:46:46Z</time>
      </trkpt>
      <trkpt lat="51.233090707028" lon="4.460747938304">
        <ele>0</ele>
        <time>2019-04-11T22:46:54Z</time>
      </trkpt>
      <trkpt lat="51.233143680636" lon="4.461059074432">
        <ele>0</ele>
        <time>2019-04-11T22:47:02Z</time>
      </trkpt>
      <trkpt lat="51.23321626789" lon="4.461362080117">
        <ele>2.4</ele>
        <time>2019-04-11T22:47:10Z</time>
      </trkpt>
      <trkpt lat="51.233292626999" lon="4.461658967015">
        <ele>5.2</ele>
        <time>2019-04-11T22:47:18Z</time>
      </trkpt>
      <trkpt lat="51.233358341095" lon="4.461966498926">
        <ele>6.2</ele>
        <time>2019-04-11T22:47:26Z</time>
      </trkpt>
      <trkpt lat="51.233399412405" lon="4.462247041119">
        <ele>7</ele>
        <time>2019-04-11T22:47:33Z</time>
      </trkpt>
      <trkpt lat="51.233462276655" lon="4.462519620507">
        <ele>8.2</ele>
        <time>2019-04-11T22:47:40Z</time>
      </trkpt>
      <trkpt lat="51.233469736546" lon="4.462594219417">
        <ele>8.6</ele>
        <time>2019-04-11T22:47:41Z</time>
      </trkpt>
      <trkpt lat="51.233479711007" lon="4.462908708305">
        <ele>8.4</ele>
        <time>2019-04-11T22:47:50Z</time>
      </trkpt>
      <trkpt lat="51.23352639819" lon="4.463220263528">
        <ele>8.6</ele>
        <time>2019-04-11T22:47:58Z</time>
      </trkpt>
      <trkpt lat="51.23357082226" lon="4.463503068834">
        <ele>8.2</ele>
        <time>2019-04-11T22:48:05Z</time>
      </trkpt>
      <trkpt lat="51.23361943728" lon="4.46378587414">
        <ele>8</ele>
        <time>2019-04-11T22:48:13Z</time>
      </trkpt>
      <trkpt lat="51.233509215295" lon="4.464060046089">
        <ele>5.6</ele>
        <time>2019-04-11T22:48:21Z</time>
      </trkpt>
      <trkpt lat="51.233484404871" lon="4.464146379659">
        <ele>5.4</ele>
        <time>2019-04-11T22:48:24Z</time>
      </trkpt>
      <trkpt lat="51.233620024013" lon="4.464365985439">
        <ele>4.6</ele>
        <time>2019-04-11T22:48:34Z</time>
      </trkpt>
      <trkpt lat="51.233679619322" lon="4.464643510148">
        <ele>4</ele>
        <time>2019-04-11T22:48:42Z</time>
      </trkpt>
      <trkpt lat="51.233767210177" lon="4.464935451725">
        <ele>5.4</ele>
        <time>2019-04-11T22:48:51Z</time>
      </trkpt>
      <trkpt lat="51.233834684472" lon="4.465227644759">
        <ele>7.6</ele>
        <time>2019-04-11T22:48:59Z</time>
      </trkpt>
      <trkpt lat="51.233909534839" lon="4.46550667821">
        <ele>9.4</ele>
        <time>2019-04-11T22:49:07Z</time>
      </trkpt>
      <trkpt lat="51.233977763505" lon="4.465772719716">
        <ele>10</ele>
        <time>2019-04-11T22:49:15Z</time>
      </trkpt>
      <trkpt lat="51.234063510342" lon="4.466059296877">
        <ele>15.2</ele>
        <time>2019-04-11T22:49:23Z</time>
      </trkpt>
      <trkpt lat="51.234141881107" lon="4.466334642292">
        <ele>20.8</ele>
        <time>2019-04-11T22:49:31Z</time>
      </trkpt>
      <trkpt lat="51.234187813919" lon="4.466627673516">
        <ele>22.6</ele>
        <time>2019-04-11T22:49:39Z</time>
      </trkpt>
      <trkpt lat="51.234227376487" lon="4.466932523219">
        <ele>25.4</ele>
        <time>2019-04-11T22:49:48Z</time>
      </trkpt>
      <trkpt lat="51.234306082528" lon="4.467225889719">
        <ele>26.6</ele>
        <time>2019-04-11T22:49:57Z</time>
      </trkpt>
      <trkpt lat="51.234351344788" lon="4.467595782966">
        <ele>25</ele>
        <time>2019-04-11T22:50:07Z</time>
      </trkpt>
      <trkpt lat="51.234332234056" lon="4.467909852759">
        <ele>16.8</ele>
        <time>2019-04-11T22:50:15Z</time>
      </trkpt>
      <trkpt lat="51.234359726688" lon="4.468213528996">
        <ele>13.8</ele>
        <time>2019-04-11T22:50:24Z</time>
      </trkpt>
      <trkpt lat="51.234395349763" lon="4.468503123641">
        <ele>12.2</ele>
        <time>2019-04-11T22:50:32Z</time>
      </trkpt>
      <trkpt lat="51.234441450213" lon="4.468814343588">
        <ele>11.8</ele>
        <time>2019-04-11T22:50:41Z</time>
      </trkpt>
      <trkpt lat="51.234487131568" lon="4.469094634324">
        <ele>13</ele>
        <time>2019-04-11T22:50:49Z</time>
      </trkpt>
      <trkpt lat="51.23454228447" lon="4.469388587557">
        <ele>18.2</ele>
        <time>2019-04-11T22:50:58Z</time>
      </trkpt>
      <trkpt lat="51.234603723797" lon="4.46968505536">
        <ele>19.6</ele>
        <time>2019-04-11T22:51:06Z</time>
      </trkpt>
      <trkpt lat="51.234658206147" lon="4.4699750691">
        <ele>22.8</ele>
        <time>2019-04-11T22:51:14Z</time>
      </trkpt>
      <trkpt lat="51.234680753458" lon="4.470289055074">
        <ele>15.8</ele>
        <time>2019-04-11T22:51:22Z</time>
      </trkpt>
      <trkpt lat="51.234691901385" lon="4.470594156234">
        <ele>11</ele>
        <time>2019-04-11T22:51:30Z</time>
      </trkpt>
      <trkpt lat="51.234709000461" lon="4.470886265449">
        <ele>7.8</ele>
        <time>2019-04-11T22:51:38Z</time>
      </trkpt>
      <trkpt lat="51.234747976296" lon="4.47119966469">
        <ele>5.4</ele>
        <time>2019-04-11T22:51:46Z</time>
      </trkpt>
      <trkpt lat="51.234796507497" lon="4.471497725054">
        <ele>7</ele>
        <time>2019-04-11T22:51:54Z</time>
      </trkpt>
      <trkpt lat="51.234837662626" lon="4.471824786792">
        <ele>8.2</ele>
        <time>2019-04-11T22:52:02Z</time>
      </trkpt>
      <trkpt lat="51.23488761875" lon="4.472115051989">
        <ele>5.2</ele>
        <time>2019-04-11T22:52:11Z</time>
      </trkpt>
      <trkpt lat="51.234952327018" lon="4.472404814272">
        <ele>3.6</ele>
        <time>2019-04-11T22:52:19Z</time>
      </trkpt>
      <trkpt lat="51.235001864047" lon="4.472686446112">
        <ele>8.2</ele>
        <time>2019-04-11T22:52:27Z</time>
      </trkpt>
      <trkpt lat="51.235060453528" lon="4.472984925571">
        <ele>11</ele>
        <time>2019-04-11T22:52:35Z</time>
      </trkpt>
      <trkpt lat="51.235118121" lon="4.473292289844">
        <ele>10</ele>
        <time>2019-04-11T22:52:43Z</time>
      </trkpt>
      <trkpt lat="51.235165227278" lon="4.473607030189">
        <ele>8.2</ele>
        <time>2019-04-11T22:52:52Z</time>
      </trkpt>
      <trkpt lat="51.235257595816" lon="4.47386343251">
        <ele>9.4</ele>
        <time>2019-04-11T22:53:01Z</time>
      </trkpt>
      <trkpt lat="51.235293889443" lon="4.473905593467">
        <ele>11.2</ele>
        <time>2019-04-11T22:53:02Z</time>
      </trkpt>
      <trkpt lat="51.235283998801" lon="4.474191248619">
        <ele>13.8</ele>
        <time>2019-04-11T22:53:11Z</time>
      </trkpt>
      <trkpt lat="51.23534191773" lon="4.47447531121">
        <ele>11.8</ele>
        <time>2019-04-11T22:53:19Z</time>
      </trkpt>
      <trkpt lat="51.235395729528" lon="4.474764822036">
        <ele>7.6</ele>
        <time>2019-04-11T22:53:28Z</time>
      </trkpt>
      <trkpt lat="51.235446272385" lon="4.475049303722">
        <ele>7</ele>
        <time>2019-04-11T22:53:36Z</time>
      </trkpt>
      <trkpt lat="51.235497904889" lon="4.475335377969">
        <ele>8.2</ele>
        <time>2019-04-11T22:53:44Z</time>
      </trkpt>
      <trkpt lat="51.235551129954" lon="4.475610974841">
        <ele>7.8</ele>
        <time>2019-04-11T22:53:52Z</time>
      </trkpt>
      <trkpt lat="51.235620029172" lon="4.475883386591">
        <ele>10.6</ele>
        <time>2019-04-11T22:54:00Z</time>
      </trkpt>
      <trkpt lat="51.235670404391" lon="4.47619611528">
        <ele>5.6</ele>
        <time>2019-04-11T22:54:08Z</time>
      </trkpt>
      <trkpt lat="51.23571742685" lon="4.476485458468">
        <ele>4</ele>
        <time>2019-04-11T22:54:16Z</time>
      </trkpt>
      <trkpt lat="51.23576185092" lon="4.476769688697">
        <ele>1.2</ele>
        <time>2019-04-11T22:54:24Z</time>
      </trkpt>
      <trkpt lat="51.235827984111" lon="4.477052494003">
        <ele>0</ele>
        <time>2019-04-11T22:54:32Z</time>
      </trkpt>
      <trkpt lat="51.235913982405" lon="4.477339490259">
        <ele>1.4</ele>
        <time>2019-04-11T22:54:40Z</time>
      </trkpt>
      <trkpt lat="51.235980115596" lon="4.47761684733">
        <ele>2.6</ele>
        <time>2019-04-11T22:54:48Z</time>
      </trkpt>
      <trkpt lat="51.23604013" lon="4.477902167206">
        <ele>4.4</ele>
        <time>2019-04-11T22:54:56Z</time>
      </trkpt>
      <trkpt lat="51.23608958321" lon="4.478195533706">
        <ele>5.2</ele>
        <time>2019-04-11T22:55:04Z</time>
      </trkpt>
      <trkpt lat="51.236148843243" lon="4.478483451971">
        <ele>8.8</ele>
        <time>2019-04-11T22:55:13Z</time>
      </trkpt>
      <trkpt lat="51.236182370843" lon="4.478798779049">
        <ele>11.2</ele>
        <time>2019-04-11T22:55:21Z</time>
      </trkpt>
      <trkpt lat="51.23619603334" lon="4.479105640408">
        <ele>12.6</ele>
        <time>2019-04-11T22:55:29Z</time>
      </trkpt>
      <trkpt lat="51.236202822679" lon="4.47939716289">
        <ele>12.6</ele>
        <time>2019-04-11T22:55:37Z</time>
      </trkpt>
      <trkpt lat="51.236210198751" lon="4.479720871868">
        <ele>14.6</ele>
        <time>2019-04-11T22:55:45Z</time>
      </trkpt>
      <trkpt lat="51.236209192923" lon="4.480021530621">
        <ele>18.2</ele>
        <time>2019-04-11T22:55:53Z</time>
      </trkpt>
      <trkpt lat="51.23620022429" lon="4.480338701717">
        <ele>20</ele>
        <time>2019-04-11T22:56:02Z</time>
      </trkpt>
      <trkpt lat="51.236191255657" lon="4.480661404867">
        <ele>20</ele>
        <time>2019-04-11T22:56:11Z</time>
      </trkpt>
      <trkpt lat="51.236182957576" lon="4.480970696977">
        <ele>24.2</ele>
        <time>2019-04-11T22:56:20Z</time>
      </trkpt>
      <trkpt lat="51.236168624527" lon="4.481465731991">
        <ele>26.8</ele>
        <time>2019-04-11T22:56:33Z</time>
      </trkpt>
      <trkpt lat="51.236147753596" lon="4.481776029929">
        <ele>24.4</ele>
        <time>2019-04-11T22:56:41Z</time>
      </trkpt>
      <trkpt lat="51.236132917633" lon="4.482083058926">
        <ele>23.4</ele>
        <time>2019-04-11T22:56:49Z</time>
      </trkpt>
      <trkpt lat="51.236106766105" lon="4.482386902801">
        <ele>18.6</ele>
        <time>2019-04-11T22:56:57Z</time>
      </trkpt>
      <trkpt lat="51.236109783589" lon="4.482694350893">
        <ele>16.6</ele>
        <time>2019-04-11T22:57:05Z</time>
      </trkpt>
      <trkpt lat="51.236098468024" lon="4.483000374062">
        <ele>13.8</ele>
        <time>2019-04-11T22:57:13Z</time>
      </trkpt>
      <trkpt lat="51.236114561272" lon="4.483295500761">
        <ele>14.2</ele>
        <time>2019-04-11T22:57:21Z</time>
      </trkpt>
      <trkpt lat="51.236112046702" lon="4.48360152393">
        <ele>16.2</ele>
        <time>2019-04-11T22:57:29Z</time>
      </trkpt>
      <trkpt lat="51.236110035046" lon="4.483906038357">
        <ele>15.8</ele>
        <time>2019-04-11T22:57:37Z</time>
      </trkpt>
      <trkpt lat="51.236110454141" lon="4.484233770647">
        <ele>12</ele>
        <time>2019-04-11T22:57:45Z</time>
      </trkpt>
      <trkpt lat="51.236107771933" lon="4.484539961454">
        <ele>13.6</ele>
        <time>2019-04-11T22:57:53Z</time>
      </trkpt>
      <trkpt lat="51.23610047968" lon="4.484847577184">
        <ele>13.2</ele>
        <time>2019-04-11T22:58:01Z</time>
      </trkpt>
      <trkpt lat="51.236117159661" lon="4.485165670289">
        <ele>14.2</ele>
        <time>2019-04-11T22:58:09Z</time>
      </trkpt>
      <trkpt lat="51.236115734738" lon="4.485473286019">
        <ele>14</ele>
        <time>2019-04-11T22:58:17Z</time>
      </trkpt>
      <trkpt lat="51.236130319244" lon="4.485773944772">
        <ele>14.8</ele>
        <time>2019-04-11T22:58:25Z</time>
      </trkpt>
      <trkpt lat="51.236139790791" lon="4.486070077299">
        <ele>14.8</ele>
        <time>2019-04-11T22:58:33Z</time>
      </trkpt>
      <trkpt lat="51.236130905977" lon="4.486368556758">
        <ele>13</ele>
        <time>2019-04-11T22:58:41Z</time>
      </trkpt>
      <trkpt lat="51.236135851298" lon="4.486667371493">
        <ele>12.4</ele>
        <time>2019-04-11T22:58:49Z</time>
      </trkpt>
      <trkpt lat="51.236149597614" lon="4.48698445877">
        <ele>13.2</ele>
        <time>2019-04-11T22:58:57Z</time>
      </trkpt>
      <trkpt lat="51.236163846844" lon="4.487290649577">
        <ele>14.2</ele>
        <time>2019-04-11T22:59:05Z</time>
      </trkpt>
      <trkpt lat="51.236175749142" lon="4.487589799588">
        <ele>15</ele>
        <time>2019-04-11T22:59:13Z</time>
      </trkpt>
      <trkpt lat="51.236184550137" lon="4.487895236024">
        <ele>13.6</ele>
        <time>2019-04-11T22:59:21Z</time>
      </trkpt>
      <trkpt lat="51.236194189322" lon="4.488215843699">
        <ele>14</ele>
        <time>2019-04-11T22:59:29Z</time>
      </trkpt>
      <trkpt lat="51.236197542082" lon="4.488538798306">
        <ele>13.8</ele>
        <time>2019-04-11T22:59:37Z</time>
      </trkpt>
      <trkpt lat="51.236213802968" lon="4.48884440238">
        <ele>14</ele>
        <time>2019-04-11T22:59:45Z</time>
      </trkpt>
      <trkpt lat="51.236225705266" lon="4.489135505767">
        <ele>15.6</ele>
        <time>2019-04-11T22:59:52Z</time>
      </trkpt>
      <trkpt lat="51.236209192923" lon="4.489421496195">
        <ele>16.2</ele>
        <time>2019-04-11T22:59:59Z</time>
      </trkpt>
      <trkpt lat="51.23619770972" lon="4.489734224884">
        <ele>17.6</ele>
        <time>2019-04-11T23:00:07Z</time>
      </trkpt>
      <trkpt lat="51.236156973686" lon="4.490015102353">
        <ele>14.8</ele>
        <time>2019-04-11T23:00:14Z</time>
      </trkpt>
      <trkpt lat="51.236080614577" lon="4.490316599296">
        <ele>13.6</ele>
        <time>2019-04-11T23:00:21Z</time>
      </trkpt>
      <trkpt lat="51.236010038979" lon="4.490604349923">
        <ele>9.2</ele>
        <time>2019-04-11T23:00:28Z</time>
      </trkpt>
      <trkpt lat="51.235968464755" lon="4.490917413888">
        <ele>5.4</ele>
        <time>2019-04-11T23:00:36Z</time>
      </trkpt>
      <trkpt lat="51.235886657411" lon="4.491213294958">
        <ele>4</ele>
        <time>2019-04-11T23:00:44Z</time>
      </trkpt>
      <trkpt lat="51.235806694085" lon="4.491489478563">
        <ele>2.8</ele>
        <time>2019-04-11T23:00:52Z</time>
      </trkpt>
      <trkpt lat="51.235723210361" lon="4.491761722675">
        <ele>2.8</ele>
        <time>2019-04-11T23:01:00Z</time>
      </trkpt>
      <trkpt lat="51.23564534251" lon="4.492021813032">
        <ele>1.4</ele>
        <time>2019-04-11T23:01:08Z</time>
      </trkpt>
      <trkpt lat="51.235572000885" lon="4.492291291117">
        <ele>0.2</ele>
        <time>2019-04-11T23:01:16Z</time>
      </trkpt>
      <trkpt lat="51.235486505505" lon="4.492552890216">
        <ele>0</ele>
        <time>2019-04-11T23:01:24Z</time>
      </trkpt>
      <trkpt lat="51.235398579374" lon="4.492834689694">
        <ele>0</ele>
        <time>2019-04-11T23:01:32Z</time>
      </trkpt>
      <trkpt lat="51.235321382075" lon="4.493133336791">
        <ele>1.8</ele>
        <time>2019-04-11T23:01:40Z</time>
      </trkpt>
      <trkpt lat="51.235231192831" lon="4.493413292251">
        <ele>3.2</ele>
        <time>2019-04-11T23:01:48Z</time>
      </trkpt>
      <trkpt lat="51.235149636944" lon="4.493676316273">
        <ele>4.2</ele>
        <time>2019-04-11T23:01:55Z</time>
      </trkpt>
      <trkpt lat="51.235073529292" lon="4.493979238139">
        <ele>6</ele>
        <time>2019-04-11T23:02:03Z</time>
      </trkpt>
      <trkpt lat="51.234990799939" lon="4.494263133092">
        <ele>4.8</ele>
        <time>2019-04-11T23:02:11Z</time>
      </trkpt>
      <trkpt lat="51.234905723654" lon="4.494545351665">
        <ele>6.6</ele>
        <time>2019-04-11T23:02:19Z</time>
      </trkpt>
      <trkpt lat="51.234824335405" lon="4.494841903287">
        <ele>5.8</ele>
        <time>2019-04-11T23:02:27Z</time>
      </trkpt>
      <trkpt lat="51.234695086507" lon="4.495265273056">
        <ele>3.8</ele>
        <time>2019-04-11T23:02:39Z</time>
      </trkpt>
      <trkpt lat="51.23461017786" lon="4.495527626526">
        <ele>1.2</ele>
        <time>2019-04-11T23:02:46Z</time>
      </trkpt>
      <trkpt lat="51.234535830407" lon="4.49579048291">
        <ele>0</ele>
        <time>2019-04-11T23:02:53Z</time>
      </trkpt>
      <trkpt lat="51.234455783262" lon="4.496075551329">
        <ele>0</ele>
        <time>2019-04-11T23:03:01Z</time>
      </trkpt>
      <trkpt lat="51.234373053909" lon="4.496364810698">
        <ele>0</ele>
        <time>2019-04-11T23:03:09Z</time>
      </trkpt>
      <trkpt lat="51.234281104466" lon="4.496651052583">
        <ele>0</ele>
        <time>2019-04-11T23:03:17Z</time>
      </trkpt>
      <trkpt lat="51.234211702334" lon="4.496916926451">
        <ele>0</ele>
        <time>2019-04-11T23:03:24Z</time>
      </trkpt>
      <trkpt lat="51.234122183642" lon="4.497194534979">
        <ele>0</ele>
        <time>2019-04-11T23:03:32Z</time>
      </trkpt>
      <trkpt lat="51.234036688262" lon="4.497487147108">
        <ele>0</ele>
        <time>2019-04-11T23:03:40Z</time>
      </trkpt>
      <trkpt lat="51.233958233678" lon="4.497753188614">
        <ele>0</ele>
        <time>2019-04-11T23:03:47Z</time>
      </trkpt>
      <trkpt lat="51.233871145737" lon="4.49804521401">
        <ele>1</ele>
        <time>2019-04-11T23:03:55Z</time>
      </trkpt>
      <trkpt lat="51.233781543226" lon="4.498299520856">
        <ele>1.8</ele>
        <time>2019-04-11T23:04:02Z</time>
      </trkpt>
      <trkpt lat="51.2336764342" lon="4.498571513511">
        <ele>2</ele>
        <time>2019-04-11T23:04:10Z</time>
      </trkpt>
      <trkpt lat="51.233560009609" lon="4.498830095126">
        <ele>2.4</ele>
        <time>2019-04-11T23:04:18Z</time>
      </trkpt>
      <trkpt lat="51.23342581539" lon="4.49906948219">
        <ele>2.6</ele>
        <time>2019-04-11T23:04:26Z</time>
      </trkpt>
      <trkpt lat="51.233287849316" lon="4.49930249901">
        <ele>1.6</ele>
        <time>2019-04-11T23:04:34Z</time>
      </trkpt>
      <trkpt lat="51.233153068364" lon="4.499544819739">
        <ele>1.6</ele>
        <time>2019-04-11T23:04:42Z</time>
      </trkpt>
      <trkpt lat="51.233012252444" lon="4.499760569845">
        <ele>1.4</ele>
        <time>2019-04-11T23:04:50Z</time>
      </trkpt>
      <trkpt lat="51.232877974406" lon="4.499985037127">
        <ele>2</ele>
        <time>2019-04-11T23:04:58Z</time>
      </trkpt>
      <trkpt lat="51.232748222594" lon="4.500238421964">
        <ele>1</ele>
        <time>2019-04-11T23:05:06Z</time>
      </trkpt>
      <trkpt lat="51.232614782746" lon="4.500489040774">
        <ele>0.6</ele>
        <time>2019-04-11T23:05:14Z</time>
      </trkpt>
      <trkpt lat="51.232497017051" lon="4.500706131984">
        <ele>0.6</ele>
        <time>2019-04-11T23:05:21Z</time>
      </trkpt>
      <trkpt lat="51.232371120913" lon="4.500958427174">
        <ele>2</ele>
        <time>2019-04-11T23:05:29Z</time>
      </trkpt>
      <trkpt lat="51.232256959435" lon="4.501183145913">
        <ele>0.6</ele>
        <time>2019-04-11T23:05:36Z</time>
      </trkpt>
      <trkpt lat="51.23213584098" lon="4.50142228152">
        <ele>0</ele>
        <time>2019-04-11T23:05:43Z</time>
      </trkpt>
      <trkpt lat="51.232026289547" lon="4.501664183154">
        <ele>0.2</ele>
        <time>2019-04-11T23:05:50Z</time>
      </trkpt>
      <trkpt lat="51.231901566875" lon="4.501902145295">
        <ele>0</ele>
        <time>2019-04-11T23:05:57Z</time>
      </trkpt>
      <trkpt lat="51.231745831173" lon="4.50205343859">
        <ele>0</ele>
        <time>2019-04-11T23:06:04Z</time>
      </trkpt>
      <trkpt lat="51.231553215111" lon="4.502023179931">
        <ele>2.2</ele>
        <time>2019-04-11T23:06:12Z</time>
      </trkpt>
      <trkpt lat="51.231407286232" lon="4.501837017932">
        <ele>2.4</ele>
        <time>2019-04-11T23:06:19Z</time>
      </trkpt>
      <trkpt lat="51.231297818618" lon="4.501601821818">
        <ele>2.6</ele>
        <time>2019-04-11T23:06:26Z</time>
      </trkpt>
      <trkpt lat="51.231170581376" lon="4.501376516346">
        <ele>4.6</ele>
        <time>2019-04-11T23:06:33Z</time>
      </trkpt>
      <trkpt lat="51.231039907555" lon="4.501171914167">
        <ele>5</ele>
        <time>2019-04-11T23:06:40Z</time>
      </trkpt>
      <trkpt lat="51.230919962566" lon="4.500943339754">
        <ele>7</ele>
        <time>2019-04-11T23:06:48Z</time>
      </trkpt>
      <trkpt lat="51.230808231839" lon="4.500718369558">
        <ele>5.6</ele>
        <time>2019-04-11T23:06:56Z</time>
      </trkpt>
      <trkpt lat="51.230677306561" lon="4.500511923361">
        <ele>7.6</ele>
        <time>2019-04-11T23:07:04Z</time>
      </trkpt>
      <trkpt lat="51.230543447618" lon="4.500293071952">
        <ele>8.6</ele>
        <time>2019-04-11T23:07:12Z</time>
      </trkpt>
      <trkpt lat="51.230410426865" lon="4.500076399837">
        <ele>10.2</ele>
        <time>2019-04-11T23:07:20Z</time>
      </trkpt>
      <trkpt lat="51.230258043923" lon="4.499883280861">
        <ele>10.8</ele>
        <time>2019-04-11T23:07:28Z</time>
      </trkpt>
      <trkpt lat="51.230105912438" lon="4.499679265415">
        <ele>9.2</ele>
        <time>2019-04-11T23:07:36Z</time>
      </trkpt>
      <trkpt lat="51.229952942763" lon="4.499485727344">
        <ele>7.6</ele>
        <time>2019-04-11T23:07:44Z</time>
      </trkpt>
      <trkpt lat="51.229803828762" lon="4.499307863426">
        <ele>5.8</ele>
        <time>2019-04-11T23:07:51Z</time>
      </trkpt>
      <trkpt lat="51.229648428336" lon="4.499114241536">
        <ele>4.2</ele>
        <time>2019-04-11T23:07:59Z</time>
      </trkpt>
      <trkpt lat="51.229493614643" lon="4.498924894415">
        <ele>3</ele>
        <time>2019-04-11T23:08:07Z</time>
      </trkpt>
      <trkpt lat="51.22933041905" lon="4.498741414624">
        <ele>2.2</ele>
        <time>2019-04-11T23:08:15Z</time>
      </trkpt>
      <trkpt lat="51.229165714715" lon="4.498546283992">
        <ele>0.8</ele>
        <time>2019-04-11T23:08:23Z</time>
      </trkpt>
      <trkpt lat="51.228910150584" lon="4.498309579136">
        <ele>0.8</ele>
        <time>2019-04-11T23:08:34Z</time>
      </trkpt>
      <trkpt lat="51.228748463733" lon="4.498165829551">
        <ele>0.6</ele>
        <time>2019-04-11T23:08:41Z</time>
      </trkpt>
      <trkpt lat="51.228586776882" lon="4.49803347935">
        <ele>2</ele>
        <time>2019-04-11T23:08:48Z</time>
      </trkpt>
      <trkpt lat="51.228413858285" lon="4.497899536588">
        <ele>2.6</ele>
        <time>2019-04-11T23:08:55Z</time>
      </trkpt>
      <trkpt lat="51.22823071377" lon="4.497757966297">
        <ele>2.2</ele>
        <time>2019-04-11T23:09:03Z</time>
      </trkpt>
      <trkpt lat="51.228054526232" lon="4.497653946918">
        <ele>0.2</ele>
        <time>2019-04-11T23:09:10Z</time>
      </trkpt>
      <trkpt lat="51.227869789156" lon="4.497540455992">
        <ele>0</ele>
        <time>2019-04-11T23:09:18Z</time>
      </trkpt>
      <trkpt lat="51.227670635212" lon="4.497502821261">
        <ele>0</ele>
        <time>2019-04-11T23:09:26Z</time>
      </trkpt>
      <trkpt lat="51.227501907565" lon="4.497394862389">
        <ele>1</ele>
        <time>2019-04-11T23:09:33Z</time>
      </trkpt>
      <trkpt lat="51.227334185746" lon="4.497265194396">
        <ele>2.2</ele>
        <time>2019-04-11T23:09:41Z</time>
      </trkpt>
      <trkpt lat="51.227133439241" lon="4.49723049333">
        <ele>4</ele>
        <time>2019-04-11T23:09:49Z</time>
      </trkpt>
      <trkpt lat="51.226956413513" lon="4.4971659527">
        <ele>3.2</ele>
        <time>2019-04-11T23:09:56Z</time>
      </trkpt>
      <trkpt lat="51.226772514627" lon="4.497108285228">
        <ele>1.8</ele>
        <time>2019-04-11T23:10:04Z</time>
      </trkpt>
      <trkpt lat="51.226569002095" lon="4.49705782619">
        <ele>2</ele>
        <time>2019-04-11T23:10:12Z</time>
      </trkpt>
      <trkpt lat="51.226387366322" lon="4.497025388237">
        <ele>1.2</ele>
        <time>2019-04-11T23:10:20Z</time>
      </trkpt>
      <trkpt lat="51.226195420812" lon="4.497004433487">
        <ele>0</ele>
        <time>2019-04-11T23:10:28Z</time>
      </trkpt>
      <trkpt lat="51.226002637112" lon="4.496983646375">
        <ele>0</ele>
        <time>2019-04-11T23:10:36Z</time>
      </trkpt>
      <trkpt lat="51.225803818444" lon="4.496963697453">
        <ele>0</ele>
        <time>2019-04-11T23:10:44Z</time>
      </trkpt>
      <trkpt lat="51.225609106907" lon="4.496960512331">
        <ele>0</ele>
        <time>2019-04-11T23:10:52Z</time>
      </trkpt>
      <trkpt lat="51.225414311551" lon="4.496963026901">
        <ele>0</ele>
        <time>2019-04-11T23:11:00Z</time>
      </trkpt>
      <trkpt lat="51.225214235598" lon="4.496979958339">
        <ele>0</ele>
        <time>2019-04-11T23:11:08Z</time>
      </trkpt>
      <trkpt lat="51.225029833798" lon="4.497008456799">
        <ele>0</ele>
        <time>2019-04-11T23:11:15Z</time>
      </trkpt>
      <trkpt lat="51.224850042043" lon="4.497032512852">
        <ele>0</ele>
        <time>2019-04-11T23:11:22Z</time>
      </trkpt>
      <trkpt lat="51.224666226976" lon="4.497125887218">
        <ele>0</ele>
        <time>2019-04-11T23:11:30Z</time>
      </trkpt>
      <trkpt lat="51.224484172108" lon="4.497148266891">
        <ele>0</ele>
        <time>2019-04-11T23:11:37Z</time>
      </trkpt>
      <trkpt lat="51.22430630819" lon="4.497190008753">
        <ele>0</ele>
        <time>2019-04-11T23:11:44Z</time>
      </trkpt>
      <trkpt lat="51.224126264978" lon="4.497249352605">
        <ele>0</ele>
        <time>2019-04-11T23:11:51Z</time>
      </trkpt>
      <trkpt lat="51.223936834038" lon="4.497312049217">
        <ele>0</ele>
        <time>2019-04-11T23:11:58Z</time>
      </trkpt>
      <trkpt lat="51.223756371731" lon="4.49738807305">
        <ele>0</ele>
        <time>2019-04-11T23:12:05Z</time>
      </trkpt>
      <trkpt lat="51.223583034039" lon="4.497468706928">
        <ele>0</ele>
        <time>2019-04-11T23:12:12Z</time>
      </trkpt>
      <trkpt lat="51.223394776565" lon="4.497558057982">
        <ele>0</ele>
        <time>2019-04-11T23:12:20Z</time>
      </trkpt>
      <trkpt lat="51.223216996466" lon="4.497609690486">
        <ele>0</ele>
        <time>2019-04-11T23:12:27Z</time>
      </trkpt>
      <trkpt lat="51.223047514448" lon="4.497507515125">
        <ele>0</ele>
        <time>2019-04-11T23:12:34Z</time>
      </trkpt>
      <trkpt lat="51.222946428734" lon="4.497243149999">
        <ele>0</ele>
        <time>2019-04-11T23:12:42Z</time>
      </trkpt>
      <trkpt lat="51.222891778746" lon="4.496933019699">
        <ele>0</ele>
        <time>2019-04-11T23:12:50Z</time>
      </trkpt>
      <trkpt lat="51.222829249772" lon="4.49662280558">
        <ele>0</ele>
        <time>2019-04-11T23:12:58Z</time>
      </trkpt>
      <trkpt lat="51.22278499334" lon="4.496330444908">
        <ele>0</ele>
        <time>2019-04-11T23:13:06Z</time>
      </trkpt>
      <trkpt lat="51.222730427171" lon="4.496054931855">
        <ele>0</ele>
        <time>2019-04-11T23:13:14Z</time>
      </trkpt>
      <trkpt lat="51.222669071663" lon="4.495762655002">
        <ele>0</ele>
        <time>2019-04-11T23:13:22Z</time>
      </trkpt>
      <trkpt lat="51.222595143305" lon="4.495474820556">
        <ele>0</ele>
        <time>2019-04-11T23:13:30Z</time>
      </trkpt>
      <trkpt lat="51.222525238259" lon="4.495199894236">
        <ele>0</ele>
        <time>2019-04-11T23:13:38Z</time>
      </trkpt>
      <trkpt lat="51.222476287963" lon="4.494900660406">
        <ele>0</ele>
        <time>2019-04-11T23:13:46Z</time>
      </trkpt>
      <trkpt lat="51.222418536672" lon="4.49460612044">
        <ele>0</ele>
        <time>2019-04-11T23:13:54Z</time>
      </trkpt>
      <trkpt lat="51.222351984386" lon="4.494310323189">
        <ele>0</ele>
        <time>2019-04-11T23:14:02Z</time>
      </trkpt>
      <trkpt lat="51.222301860624" lon="4.494016621413">
        <ele>0</ele>
        <time>2019-04-11T23:14:10Z</time>
      </trkpt>
      <trkpt lat="51.222239247831" lon="4.493715795022">
        <ele>0</ele>
        <time>2019-04-11T23:14:18Z</time>
      </trkpt>
      <trkpt lat="51.222125505448" lon="4.493142137786">
        <ele>0.6</ele>
        <time>2019-04-11T23:14:33Z</time>
      </trkpt>
      <trkpt lat="51.222037495498" lon="4.492868804027">
        <ele>0</ele>
        <time>2019-04-11T23:14:41Z</time>
      </trkpt>
      <trkpt lat="51.221986114451" lon="4.492561188297">
        <ele>0</ele>
        <time>2019-04-11T23:14:49Z</time>
      </trkpt>
      <trkpt lat="51.221923250201" lon="4.492264469037">
        <ele>0</ele>
        <time>2019-04-11T23:14:57Z</time>
      </trkpt>
      <trkpt lat="51.221867594385" lon="4.491975293487">
        <ele>0</ele>
        <time>2019-04-11T23:15:05Z</time>
      </trkpt>
      <trkpt lat="51.221816800071" lon="4.491692320543">
        <ele>3.2</ele>
        <time>2019-04-11T23:15:13Z</time>
      </trkpt>
      <trkpt lat="51.221764748472" lon="4.491400127509">
        <ele>4.6</ele>
        <time>2019-04-11T23:15:21Z</time>
      </trkpt>
      <trkpt lat="51.221733651623" lon="4.491100306946">
        <ele>2.2</ele>
        <time>2019-04-11T23:15:29Z</time>
      </trkpt>
      <trkpt lat="51.22167942073" lon="4.490821776409">
        <ele>1</ele>
        <time>2019-04-11T23:15:36Z</time>
      </trkpt>
      <trkpt lat="51.221622256172" lon="4.490513909222">
        <ele>5</ele>
        <time>2019-04-11T23:15:44Z</time>
      </trkpt>
      <trkpt lat="51.2215645887" lon="4.490213418107">
        <ele>2.4</ele>
        <time>2019-04-11T23:15:52Z</time>
      </trkpt>
      <trkpt lat="51.221506250676" lon="4.489936228674">
        <ele>4.2</ele>
        <time>2019-04-11T23:15:59Z</time>
      </trkpt>
      <trkpt lat="51.221445649539" lon="4.489659458336">
        <ele>3.6</ele>
        <time>2019-04-11T23:16:06Z</time>
      </trkpt>
      <trkpt lat="51.221391753922" lon="4.489378161772">
        <ele>4</ele>
        <time>2019-04-11T23:16:14Z</time>
      </trkpt>
      <trkpt lat="51.221342384531" lon="4.489066858006">
        <ele>4.8</ele>
        <time>2019-04-11T23:16:23Z</time>
      </trkpt>
      <trkpt lat="51.221276838073" lon="4.488763852321">
        <ele>6</ele>
        <time>2019-04-11T23:16:32Z</time>
      </trkpt>
      <trkpt lat="51.221202406801" lon="4.488479286816">
        <ele>6.8</ele>
        <time>2019-04-11T23:16:40Z</time>
      </trkpt>
      <trkpt lat="51.221141554207" lon="4.488196397691">
        <ele>5</ele>
        <time>2019-04-11T23:16:48Z</time>
      </trkpt>
      <trkpt lat="51.221096794861" lon="4.487913424747">
        <ele>5.2</ele>
        <time>2019-04-11T23:16:56Z</time>
      </trkpt>
      <trkpt lat="51.221054550085" lon="4.487607820673">
        <ele>5</ele>
        <time>2019-04-11T23:17:05Z</time>
      </trkpt>
      <trkpt lat="51.220990009455" lon="4.487326859385">
        <ele>4.2</ele>
        <time>2019-04-11T23:17:13Z</time>
      </trkpt>
      <trkpt lat="51.220921361694" lon="4.487052184522">
        <ele>4</ele>
        <time>2019-04-11T23:17:21Z</time>
      </trkpt>
      <trkpt lat="51.220845337861" lon="4.486781197695">
        <ele>6.4</ele>
        <time>2019-04-11T23:17:29Z</time>
      </trkpt>
      <trkpt lat="51.220779539946" lon="4.486492273602">
        <ele>10</ele>
        <time>2019-04-11T23:17:37Z</time>
      </trkpt>
      <trkpt lat="51.220726482519" lon="4.486188765003">
        <ele>9</ele>
        <time>2019-04-11T23:17:46Z</time>
      </trkpt>
      <trkpt lat="51.22068113644" lon="4.485903612765">
        <ele>7.8</ele>
        <time>2019-04-11T23:17:55Z</time>
      </trkpt>
      <trkpt lat="51.220635287447" lon="4.485625082228">
        <ele>8.6</ele>
        <time>2019-04-11T23:18:03Z</time>
      </trkpt>
      <trkpt lat="51.220578793441" lon="4.485315790118">
        <ele>8.2</ele>
        <time>2019-04-11T23:18:12Z</time>
      </trkpt>
      <trkpt lat="51.220508217843" lon="4.485025189645">
        <ele>7.4</ele>
        <time>2019-04-11T23:18:20Z</time>
      </trkpt>
      <trkpt lat="51.220451304742" lon="4.484718915019">
        <ele>6.2</ele>
        <time>2019-04-11T23:18:28Z</time>
      </trkpt>
      <trkpt lat="51.220393301994" lon="4.484410880194">
        <ele>5</ele>
        <time>2019-04-11T23:18:36Z</time>
      </trkpt>
      <trkpt lat="51.220344435517" lon="4.484133355485">
        <ele>2.8</ele>
        <time>2019-04-11T23:18:43Z</time>
      </trkpt>
      <trkpt lat="51.22027964343" lon="4.483860021726">
        <ele>4.4</ele>
        <time>2019-04-11T23:18:50Z</time>
      </trkpt>
      <trkpt lat="51.220221389225" lon="4.483574282755">
        <ele>7</ele>
        <time>2019-04-11T23:18:57Z</time>
      </trkpt>
      <trkpt lat="51.220158608794" lon="4.483305391403">
        <ele>8.4</ele>
        <time>2019-04-11T23:19:04Z</time>
      </trkpt>
      <trkpt lat="51.22010027077" lon="4.483004481193">
        <ele>6.4</ele>
        <time>2019-04-11T23:19:12Z</time>
      </trkpt>
      <trkpt lat="51.220053751225" lon="4.48272645357">
        <ele>5.2</ele>
        <time>2019-04-11T23:19:19Z</time>
      </trkpt>
      <trkpt lat="51.220007734594" lon="4.482433673803">
        <ele>2.4</ele>
        <time>2019-04-11T23:19:26Z</time>
      </trkpt>
      <trkpt lat="51.21995694028" lon="4.482152377239">
        <ele>0</ele>
        <time>2019-04-11T23:19:33Z</time>
      </trkpt>
      <trkpt lat="51.219894159849" lon="4.481865716259">
        <ele>0</ele>
        <time>2019-04-11T23:19:40Z</time>
      </trkpt>
      <trkpt lat="51.219834396902" lon="4.481582072763">
        <ele>0</ele>
        <time>2019-04-11T23:19:47Z</time>
      </trkpt>
      <trkpt lat="51.219781674751" lon="4.481303542226">
        <ele>0</ele>
        <time>2019-04-11T23:19:54Z</time>
      </trkpt>
      <trkpt lat="51.219713446085" lon="4.481013528486">
        <ele>0</ele>
        <time>2019-04-11T23:20:02Z</time>
      </trkpt>
      <trkpt lat="51.219772035566" lon="4.48083968788">
        <ele>0</ele>
        <time>2019-04-11T23:20:08Z</time>
      </trkpt>
      <trkpt lat="51.219746470771" lon="4.480557888402">
        <ele>0</ele>
        <time>2019-04-11T23:20:17Z</time>
      </trkpt>
      <trkpt lat="51.219609007611" lon="4.480330822731">
        <ele>3.4</ele>
        <time>2019-04-11T23:20:26Z</time>
      </trkpt>
      <trkpt lat="51.219515968521" lon="4.480039048792">
        <ele>5.2</ele>
        <time>2019-04-11T23:20:34Z</time>
      </trkpt>
      <trkpt lat="51.219388898917" lon="4.479647865519">
        <ele>5.4</ele>
        <time>2019-04-11T23:20:45Z</time>
      </trkpt>
      <trkpt lat="51.219310528152" lon="4.479366736593">
        <ele>6.2</ele>
        <time>2019-04-11T23:20:53Z</time>
      </trkpt>
      <trkpt lat="51.219254285603" lon="4.479066999849">
        <ele>6.8</ele>
        <time>2019-04-11T23:21:01Z</time>
      </trkpt>
      <trkpt lat="51.219217153786" lon="4.478779500679">
        <ele>6.6</ele>
        <time>2019-04-11T23:21:08Z</time>
      </trkpt>
      <trkpt lat="51.219181027797" lon="4.478463335411">
        <ele>5.6</ele>
        <time>2019-04-11T23:21:16Z</time>
      </trkpt>
      <trkpt lat="51.219135011166" lon="4.478173740766">
        <ele>4</ele>
        <time>2019-04-11T23:21:23Z</time>
      </trkpt>
      <trkpt lat="51.219078936255" lon="4.477886828329">
        <ele>1.6</ele>
        <time>2019-04-11T23:21:31Z</time>
      </trkpt>
      <trkpt lat="51.219003247698" lon="4.477595138209">
        <ele>1.4</ele>
        <time>2019-04-11T23:21:39Z</time>
      </trkpt>
      <trkpt lat="51.218955638506" lon="4.477304286279">
        <ele>1</ele>
        <time>2019-04-11T23:21:47Z</time>
      </trkpt>
      <trkpt lat="51.218921188897" lon="4.477010165408">
        <ele>1.8</ele>
        <time>2019-04-11T23:21:55Z</time>
      </trkpt>
      <trkpt lat="51.218933594109" lon="4.476699364556">
        <ele>2.2</ele>
        <time>2019-04-11T23:22:03Z</time>
      </trkpt>
      <trkpt lat="51.218959997094" lon="4.476384372754">
        <ele>2.8</ele>
        <time>2019-04-11T23:22:11Z</time>
      </trkpt>
      <trkpt lat="51.218994446703" lon="4.476077427576">
        <ele>1.8</ele>
        <time>2019-04-11T23:22:19Z</time>
      </trkpt>
      <trkpt lat="51.219025208276" lon="4.475764531249">
        <ele>0.8</ele>
        <time>2019-04-11T23:22:27Z</time>
      </trkpt>
      <trkpt lat="51.21906091517" lon="4.475461693202">
        <ele>1.4</ele>
        <time>2019-04-11T23:22:35Z</time>
      </trkpt>
      <trkpt lat="51.219109781647" lon="4.4751718471">
        <ele>2</ele>
        <time>2019-04-11T23:22:43Z</time>
      </trkpt>
      <trkpt lat="51.219146159093" lon="4.474867165035">
        <ele>1.2</ele>
        <time>2019-04-11T23:22:51Z</time>
      </trkpt>
      <trkpt lat="51.21917071806" lon="4.474576145467">
        <ele>0.4</ele>
        <time>2019-04-11T23:22:58Z</time>
      </trkpt>
      <trkpt lat="51.219209526257" lon="4.4742749838">
        <ele>3.6</ele>
        <time>2019-04-11T23:23:07Z</time>
      </trkpt>
      <trkpt lat="51.219267026091" lon="4.473974325047">
        <ele>5.8</ele>
        <time>2019-04-11T23:23:16Z</time>
      </trkpt>
      <trkpt lat="51.219311785437" lon="4.47368405985">
        <ele>6.4</ele>
        <time>2019-04-11T23:23:24Z</time>
      </trkpt>
      <trkpt lat="51.219354365489" lon="4.473390358074">
        <ele>5.8</ele>
        <time>2019-04-11T23:23:32Z</time>
      </trkpt>
      <trkpt lat="51.219401387948" lon="4.473106211664">
        <ele>8.2</ele>
        <time>2019-04-11T23:23:40Z</time>
      </trkpt>
      <trkpt lat="51.219446231113" lon="4.472794321165">
        <ele>7.4</ele>
        <time>2019-04-11T23:23:48Z</time>
      </trkpt>
      <trkpt lat="51.219488056794" lon="4.472484526141">
        <ele>6.4</ele>
        <time>2019-04-11T23:23:56Z</time>
      </trkpt>
      <trkpt lat="51.21953449252" lon="4.47216777414">
        <ele>5.4</ele>
        <time>2019-04-11T23:24:04Z</time>
      </trkpt>
      <trkpt lat="51.219584616282" lon="4.471871138699">
        <ele>4.4</ele>
        <time>2019-04-11T23:24:12Z</time>
      </trkpt>
      <trkpt lat="51.219638260442" lon="4.471588920126">
        <ele>3.6</ele>
        <time>2019-04-11T23:24:20Z</time>
      </trkpt>
      <trkpt lat="51.219693329525" lon="4.471283316052">
        <ele>2.8</ele>
        <time>2019-04-11T23:24:28Z</time>
      </trkpt>
      <trkpt lat="51.219751332273" lon="4.470983076394">
        <ele>3.4</ele>
        <time>2019-04-11T23:24:36Z</time>
      </trkpt>
      <trkpt lat="51.219791481574" lon="4.470692895016">
        <ele>4.2</ele>
        <time>2019-04-11T23:24:44Z</time>
      </trkpt>
      <trkpt lat="51.219838504033" lon="4.470397684498">
        <ele>5.8</ele>
        <time>2019-04-11T23:24:53Z</time>
      </trkpt>
      <trkpt lat="51.219893908392" lon="4.470101132876">
        <ele>8.6</ele>
        <time>2019-04-11T23:25:01Z</time>
      </trkpt>
      <trkpt lat="51.21993514734" lon="4.469797456639">
        <ele>11.6</ele>
        <time>2019-04-11T23:25:09Z</time>
      </trkpt>
      <trkpt lat="51.219977475935" lon="4.469520686301">
        <ele>16</ele>
        <time>2019-04-11T23:25:17Z</time>
      </trkpt>
      <trkpt lat="51.220032796475" lon="4.46923243276">
        <ele>14.4</ele>
        <time>2019-04-11T23:25:24Z</time>
      </trkpt>
      <trkpt lat="51.220085686264" lon="4.468936886966">
        <ele>13.2</ele>
        <time>2019-04-11T23:25:32Z</time>
      </trkpt>
      <trkpt lat="51.220101863331" lon="4.468640167706">
        <ele>12</ele>
        <time>2019-04-11T23:25:40Z</time>
      </trkpt>
      <trkpt lat="51.220119968235" lon="4.468325678818">
        <ele>8.2</ele>
        <time>2019-04-11T23:25:48Z</time>
      </trkpt>
      <trkpt lat="51.22013379837" lon="4.468007585713">
        <ele>5.4</ele>
        <time>2019-04-11T23:25:56Z</time>
      </trkpt>
      <trkpt lat="51.220132289628" lon="4.467700808173">
        <ele>6</ele>
        <time>2019-04-11T23:26:04Z</time>
      </trkpt>
      <trkpt lat="51.220131367619" lon="4.467393695357">
        <ele>6.4</ele>
        <time>2019-04-11T23:26:12Z</time>
      </trkpt>
      <trkpt lat="51.220137318768" lon="4.467093036604">
        <ele>6</ele>
        <time>2019-04-11T23:26:19Z</time>
      </trkpt>
      <trkpt lat="51.220144359564" lon="4.466775194956">
        <ele>5.6</ele>
        <time>2019-04-11T23:26:27Z</time>
      </trkpt>
      <trkpt lat="51.220137234949" lon="4.46648736051">
        <ele>5</ele>
        <time>2019-04-11T23:26:34Z</time>
      </trkpt>
      <trkpt lat="51.22015559131" lon="4.466193407277">
        <ele>3</ele>
        <time>2019-04-11T23:26:42Z</time>
      </trkpt>
      <trkpt lat="51.220222059777" lon="4.466052172262">
        <ele>2.2</ele>
        <time>2019-04-11T23:26:47Z</time>
      </trkpt>
      <trkpt lat="51.220407215948" lon="4.466023589983">
        <ele>1.2</ele>
        <time>2019-04-11T23:26:55Z</time>
      </trkpt>
      <trkpt lat="51.22060402296" lon="4.466002719052">
        <ele>3.4</ele>
        <time>2019-04-11T23:27:04Z</time>
      </trkpt>
      <trkpt lat="51.220804685646" lon="4.465999953025">
        <ele>6</ele>
        <time>2019-04-11T23:27:13Z</time>
      </trkpt>
      <trkpt lat="51.220987327247" lon="4.465988050727">
        <ele>9.6</ele>
        <time>2019-04-11T23:27:22Z</time>
      </trkpt>
      <trkpt lat="51.221177764015" lon="4.465937926965">
        <ele>12.6</ele>
        <time>2019-04-11T23:27:31Z</time>
      </trkpt>
      <trkpt lat="51.221258900807" lon="4.465656462763">
        <ele>13.8</ele>
        <time>2019-04-11T23:27:40Z</time>
      </trkpt>
      <trkpt lat="51.221310784768" lon="4.465369801783">
        <ele>11.6</ele>
        <time>2019-04-11T23:27:48Z</time>
      </trkpt>
      <trkpt lat="51.221339618504" lon="4.465051373402">
        <ele>8.4</ele>
        <time>2019-04-11T23:27:56Z</time>
      </trkpt>
      <trkpt lat="51.221367781688" lon="4.464757084893">
        <ele>8.4</ele>
        <time>2019-04-11T23:28:04Z</time>
      </trkpt>
      <trkpt lat="51.221387479153" lon="4.464450474991">
        <ele>8.8</ele>
        <time>2019-04-11T23:28:13Z</time>
      </trkpt>
      <trkpt lat="51.221403404763" lon="4.464148726591">
        <ele>11</ele>
        <time>2019-04-11T23:28:22Z</time>
      </trkpt>
      <trkpt lat="51.221443386426" lon="4.463856365919">
        <ele>11</ele>
        <time>2019-04-11T23:28:30Z</time>
      </trkpt>
      <trkpt lat="51.221478087492" lon="4.463568196197">
        <ele>9.2</ele>
        <time>2019-04-11T23:28:38Z</time>
      </trkpt>
      <trkpt lat="51.221500634803" lon="4.463255551327">
        <ele>10.2</ele>
        <time>2019-04-11T23:28:46Z</time>
      </trkpt>
      <trkpt lat="51.221524020304" lon="4.46295858061">
        <ele>7.6</ele>
        <time>2019-04-11T23:28:53Z</time>
      </trkpt>
      <trkpt lat="51.221537179887" lon="4.462660268789">
        <ele>4</ele>
        <time>2019-04-11T23:29:00Z</time>
      </trkpt>
      <trkpt lat="51.221552183488" lon="4.462362711339">
        <ele>4</ele>
        <time>2019-04-11T23:29:08Z</time>
      </trkpt>
      <trkpt lat="51.221569701659" lon="4.462351814869">
        <ele>4.4</ele>
        <time>2019-04-11T23:29:09Z</time>
      </trkpt>
      <trkpt lat="51.221734405994" lon="4.462500258318">
        <ele>5.2</ele>
        <time>2019-04-11T23:29:18Z</time>
      </trkpt>
      <trkpt lat="51.221901038166" lon="4.462602266041">
        <ele>6.2</ele>
        <time>2019-04-11T23:29:26Z</time>
      </trkpt>
      <trkpt lat="51.221972954868" lon="4.46259983529">
        <ele>6.8</ele>
        <time>2019-04-11T23:29:29Z</time>
      </trkpt>
      <trkpt lat="51.222155931745" lon="4.46258055692">
        <ele>6</ele>
        <time>2019-04-11T23:29:39Z</time>
      </trkpt>
      <trkpt lat="51.222325078487" lon="4.462469245288">
        <ele>7.4</ele>
        <time>2019-04-11T23:29:48Z</time>
      </trkpt>
      <trkpt lat="51.22250168512" lon="4.462358604208">
        <ele>9.6</ele>
        <time>2019-04-11T23:29:56Z</time>
      </trkpt>
      <trkpt lat="51.222660438306" lon="4.46218576943">
        <ele>4.6</ele>
        <time>2019-04-11T23:30:04Z</time>
      </trkpt>
      <trkpt lat="51.222848611961" lon="4.462058196912">
        <ele>4.2</ele>
        <time>2019-04-11T23:30:14Z</time>
      </trkpt>
      <trkpt lat="51.223019518902" lon="4.461939676846">
        <ele>6.8</ele>
        <time>2019-04-11T23:30:20Z</time>
      </trkpt>
      <trkpt lat="51.223197801915" lon="4.461817217287">
        <ele>8.2</ele>
        <time>2019-04-11T23:30:27Z</time>
      </trkpt>
      <trkpt lat="51.223385640294" lon="4.461695176823">
        <ele>9</ele>
        <time>2019-04-11T23:30:35Z</time>
      </trkpt>
      <trkpt lat="51.22355612814" lon="4.461559138586">
        <ele>9.4</ele>
        <time>2019-04-11T23:30:44Z</time>
      </trkpt>
      <trkpt lat="51.223717144439" lon="4.461429219136">
        <ele>16.8</ele>
        <time>2019-04-11T23:30:52Z</time>
      </trkpt>
      <trkpt lat="51.223898528755" lon="4.461327211413">
        <ele>21</ele>
        <time>2019-04-11T23:31:02Z</time>
      </trkpt>
      <trkpt lat="51.224082176184" lon="4.46120341075">
        <ele>22.4</ele>
        <time>2019-04-11T23:31:10Z</time>
      </trkpt>
      <trkpt lat="51.224254172772" lon="4.461092182937">
        <ele>25.6</ele>
        <time>2019-04-11T23:31:18Z</time>
      </trkpt>
      <trkpt lat="51.224419212383" lon="4.460930579905">
        <ele>18.2</ele>
        <time>2019-04-11T23:31:25Z</time>
      </trkpt>
      <trkpt lat="51.224598668862" lon="4.460819268273">
        <ele>19.6</ele>
        <time>2019-04-11T23:31:33Z</time>
      </trkpt>
      <trkpt lat="51.224775024038" lon="4.460680883104">
        <ele>25</ele>
        <time>2019-04-11T23:31:41Z</time>
      </trkpt>
      <trkpt lat="51.224956240716" lon="4.460565296703">
        <ele>27.2</ele>
        <time>2019-04-11T23:31:49Z</time>
      </trkpt>
      <trkpt lat="51.225146090751" lon="4.46044903975">
        <ele>32.4</ele>
        <time>2019-04-11T23:31:58Z</time>
      </trkpt>
      <trkpt lat="51.22532638542" lon="4.460360023972">
        <ele>30.6</ele>
        <time>2019-04-11T23:32:06Z</time>
      </trkpt>
      <trkpt lat="51.22549737618" lon="4.460235133662">
        <ele>26.4</ele>
        <time>2019-04-11T23:32:15Z</time>
      </trkpt>
      <trkpt lat="51.225668786035" lon="4.460111165361">
        <ele>29.2</ele>
        <time>2019-04-11T23:32:22Z</time>
      </trkpt>
      <trkpt lat="51.225838100415" lon="4.45996624231">
        <ele>27.8</ele>
        <time>2019-04-11T23:32:30Z</time>
      </trkpt>
      <trkpt lat="51.226005654596" lon="4.459833053919">
        <ele>25.6</ele>
        <time>2019-04-11T23:32:38Z</time>
      </trkpt>
      <trkpt lat="51.226076984565" lon="4.459773123334">
        <ele>20.2</ele>
        <time>2019-04-11T23:32:41Z</time>
      </trkpt>
      <trkpt lat="51.226225092738" lon="4.459835736127">
        <ele>12.8</ele>
        <time>2019-04-11T23:32:48Z</time>
      </trkpt>
      <trkpt lat="51.226257195415" lon="4.459803717269">
        <ele>11.6</ele>
        <time>2019-04-11T23:32:50Z</time>
      </trkpt>
      <trkpt lat="51.226383678286" lon="4.459593583036">
        <ele>7.2</ele>
        <time>2019-04-11T23:32:57Z</time>
      </trkpt>
      <trkpt lat="51.22655349558" lon="4.45945159365">
        <ele>7</ele>
        <time>2019-04-11T23:33:05Z</time>
      </trkpt>
      <trkpt lat="51.226720546847" lon="4.459329720824">
        <ele>7.4</ele>
        <time>2019-04-11T23:33:12Z</time>
      </trkpt>
      <trkpt lat="51.226935626401" lon="4.459196700071">
        <ele>9</ele>
        <time>2019-04-11T23:33:21Z</time>
      </trkpt>
      <trkpt lat="51.227111981577" lon="4.459070049562">
        <ele>8.8</ele>
        <time>2019-04-11T23:33:29Z</time>
      </trkpt>
      <trkpt lat="51.227299400861" lon="4.458981788155">
        <ele>12</ele>
        <time>2019-04-11T23:33:38Z</time>
      </trkpt>
      <trkpt lat="51.227486317231" lon="4.45888246264">
        <ele>15.8</ele>
        <time>2019-04-11T23:33:47Z</time>
      </trkpt>
      <trkpt lat="51.227662085674" lon="4.458721027246">
        <ele>16.6</ele>
        <time>2019-04-11T23:33:56Z</time>
      </trkpt>
      <trkpt lat="51.227687734288" lon="4.458701916514">
        <ele>16</ele>
        <time>2019-04-11T23:33:57Z</time>
      </trkpt>
    </trkseg>
  </trk>
</gpx>